Time;durP1;ratioP1;P1;durP2;ratioP2;P2;SDS_P1;SDS_P2;PMS_P1;PMS_P2;Temp;Humidity;BMP_temperature;BMP_pressure;BME280_temperature;BME280_humidity;BME280_pressure;Samples;Min_cycle;Max_cycle;Signal;HPM_P1;HPM_P2
2022/12/29 00:02:14;;;;;;;2.28;1.50;;;;;;;10.25;100.00;99886.53;5010353;28;20137;-75
2022/12/29 00:04:39;;;;;;;1.15;1.10;;;;;;;10.26;100.00;99898.16;5012168;28;20029;-72
2022/12/29 00:07:05;;;;;;;2.55;1.20;;;;;;;10.24;100.00;99889.47;5012792;28;20084;-74
2022/12/29 00:09:31;;;;;;;1.80;1.17;;;;;;;10.26;100.00;99892.72;5012249;28;20076;-73
2022/12/29 00:11:57;;;;;;;0.88;0.88;;;;;;;10.29;100.00;99881.44;5012010;28;20543;-72
2022/12/29 00:17:07;;;;;;;0.88;0.70;;;;;;;10.18;100.00;99858.81;5012681;28;20099;-71
2022/12/29 00:36:16;;;;;;;2.03;0.90;;;;;;;9.84;100.00;99858.00;5012496;28;20041;-75
2022/12/29 00:44:16;;;;;;;1.70;1.20;;;;;;;9.72;100.00;99844.56;5012419;28;20064;-74
2022/12/29 00:46:42;;;;;;;1.63;1.27;;;;;;;9.69;100.00;99835.06;5012261;28;20461;-73
2022/12/29 00:51:55;;;;;;;2.08;1.58;;;;;;;9.67;100.00;99842.59;5011751;28;20100;-71
2022/12/29 00:54:21;;;;;;;2.55;1.80;;;;;;;9.69;100.00;99835.06;5012383;28;20064;-72
2022/12/29 00:56:52;;;;;;;2.20;1.90;;;;;;;9.67;100.00;99831.78;5012496;28;20518;-74
2022/12/29 00:59:18;;;;;;;;;;;;;;;9.76;100.00;99829.50;5012695;28;20109;-74
2022/12/29 01:01:44;;;;;;;2.10;1.90;;;;;;;9.71;100.00;99843.75;5009054;28;20008;-75
2022/12/29 01:04:10;;;;;;;2.45;2.15;;;;;;;9.71;100.00;99815.91;5024417;28;20076;-74
2022/12/29 01:06:37;;;;;;;3.13;2.33;;;;;;;9.71;100.00;99814.03;5031646;28;20516;-74
2022/12/29 01:11:47;;;;;;;5.00;1.90;;;;;;;9.76;100.00;99797.06;5014725;28;20057;-73
2022/12/29 01:14:13;;;;;;;2.35;2.15;;;;;;;9.76;100.00;99803.28;5012485;28;20381;-73
2022/12/29 01:16:38;;;;;;;2.35;2.10;;;;;;;9.78;100.00;99794.94;5011664;28;20067;-73
2022/12/29 01:19:04;;;;;;;2.30;2.10;;;;;;;9.80;100.00;99803.63;5011804;28;20113;-72
2022/12/29 01:21:29;;;;;;;2.13;1.90;;;;;;;9.82;100.00;99798.78;5010007;28;20486;-74
2022/12/29 01:23:54;;;;;;;1.88;1.77;;;;;;;9.85;100.00;99790.19;5012304;28;20108;-70
2022/12/29 01:26:20;;;;;;;2.88;1.73;;;;;;;9.87;100.00;99792.66;5015226;28;20053;-72
2022/12/29 01:28:45;;;;;;;2.83;1.70;;;;;;;9.93;100.00;99788.97;5015364;28;20029;-74
2022/12/29 01:31:13;;;;;;;1.95;1.70;;;;;;;9.97;100.00;99794.72;5014670;28;20449;-70
2022/12/29 01:33:39;;;;;;;1.90;1.27;;;;;;;9.98;100.00;99789.06;5013405;28;20112;-74
2022/12/29 01:36:07;;;;;;;3.17;1.63;;;;;;;10.01;100.00;99788.56;5015095;28;20113;-74
2022/12/29 01:38:34;;;;;;;4.18;1.50;;;;;;;10.02;100.00;99790.19;5015057;28;20045;-71
2022/12/29 01:41:00;;;;;;;2.00;1.23;;;;;;;10.02;100.00;99779.38;5014580;28;20034;-73
2022/12/29 01:43:49;;;;;;;2.25;1.52;;;;;;;10.06;100.00;99777.81;5014944;28;20079;-71
2022/12/29 01:46:33;;;;;;;1.85;1.20;;;;;;;10.13;100.00;99782.22;5015275;28;20105;-73
2022/12/29 01:49:15;;;;;;;2.08;1.42;;;;;;;10.11;100.00;99794.13;5014665;28;20030;-74
2022/12/29 01:52:04;;;;;;;2.22;1.23;;;;;;;10.15;100.00;99788.22;5014586;28;20034;-75
2022/12/29 01:54:34;;;;;;;1.17;0.93;;;;;;;10.13;100.00;99790.34;5014907;28;20041;-72
2022/12/29 01:57:04;;;;;;;3.35;1.30;;;;;;;10.15;100.00;99790.94;5014694;28;20106;-74
2022/12/29 01:59:36;;;;;;;4.45;1.33;;;;;;;10.17;100.00;99786.06;5014942;28;20034;-75
2022/12/29 02:02:02;;;;;;;2.28;1.20;;;;;;;10.23;100.00;99795.91;5011270;28;20037;-74
2022/12/29 02:04:32;;;;;;;3.03;1.13;;;;;;;10.27;100.00;99786.22;5027373;28;20040;-74
2022/12/29 02:07:05;;;;;;;1.73;1.00;;;;;;;10.33;100.00;99792.53;5034316;28;20045;-72
2022/12/29 02:09:30;;;;;;;2.88;1.45;;;;;;;10.29;100.00;99778.69;5034256;28;20539;-71
2022/12/29 02:11:58;;;;;;;2.65;1.15;;;;;;;10.32;100.00;99786.28;5017962;28;20117;-73
2022/12/29 02:14:23;;;;;;;2.95;1.30;;;;;;;10.33;100.00;99787.97;5014748;28;20034;-70
2022/12/29 02:17:13;;;;;;;2.97;1.02;;;;;;;10.35;100.00;99788.53;5014700;28;20080;-74
2022/12/29 02:19:57;;;;;;;3.85;1.58;;;;;;;10.39;100.00;99783.44;5014230;28;20033;-72
2022/12/29 02:22:32;;;;;;;2.67;1.10;;;;;;;10.42;100.00;99783.75;5013939;28;20052;-72
2022/12/29 02:25:23;;;;;;;4.70;0.98;;;;;;;10.41;100.00;99790.22;5014139;28;20037;-74
2022/12/29 02:28:03;;;;;;;3.20;1.40;;;;;;;10.41;100.00;99781.31;5014184;28;20041;-74
2022/12/29 02:31:06;;;;;;;3.22;1.10;;;;;;;10.46;100.00;99779.50;5013515;28;20030;-71
2022/12/29 02:33:40;;;;;;;4.05;1.20;;;;;;;10.46;100.00;99762.44;5014289;28;20034;-74
2022/12/29 02:36:21;;;;;;;3.35;1.20;;;;;;;10.43;100.00;99782.69;5014074;28;20118;-71
2022/12/29 02:38:50;;;;;;;4.95;1.10;;;;;;;10.40;100.00;99766.13;5013580;28;20433;-74
2022/12/29 02:41:26;;;;;;;3.05;1.10;;;;;;;10.37;100.00;99764.78;5018075;28;20116;-75
2022/12/29 02:44:04;;;;;;;2.45;1.13;;;;;;;10.36;100.00;99765.03;5032562;28;20034;-72
2022/12/29 02:46:51;;;;;;;4.93;1.20;;;;;;;10.37;100.00;99753.94;5032526;28;20025;-73
2022/12/29 02:49:27;;;;;;;5.03;1.35;;;;;;;10.31;100.00;99760.34;5033698;28;20037;-74
2022/12/29 02:52:03;;;;;;;1.73;1.20;;;;;;;10.28;100.00;99769.75;5017827;28;20065;-74
2022/12/29 02:54:40;;;;;;;2.67;1.20;;;;;;;10.31;100.00;99765.75;5013426;28;20030;-74
2022/12/29 02:57:29;;;;;;;3.58;1.15;;;;;;;10.32;100.00;99753.03;5013741;28;20088;-72
2022/12/29 03:00:01;;;;;;;4.32;1.15;;;;;;;10.27;100.00;99760.00;5013189;28;20046;-74
2022/12/29 03:02:44;;;;;;;2.65;1.25;;;;;;;10.29;100.00;99735.41;5010665;28;20037;-71
2022/12/29 03:05:12;;;;;;;2.72;1.23;;;;;;;10.24;100.00;99752.38;5012363;28;20428;-71
2022/12/29 03:08:22;;;;;;;2.15;1.00;;;;;;;10.23;100.00;99733.72;5012647;28;20034;-74
2022/12/29 03:11:01;;;;;;;1.92;0.98;;;;;;;10.22;100.00;99759.09;5012940;28;20084;-73
2022/12/29 03:16:29;;;;;;;2.25;1.00;;;;;;;10.20;100.00;99753.13;5013503;28;20100;-70
2022/12/29 03:19:07;;;;;;;6.15;1.10;;;;;;;10.20;100.00;99755.84;5012975;28;20030;-74
2022/12/29 03:24:37;;;;;;;3.05;1.10;;;;;;;10.19;100.00;99749.63;5013333;28;20477;-70
2022/12/29 03:27:06;;;;;;;4.15;1.30;;;;;;;10.25;100.00;99745.09;5013255;28;20450;-72
2022/12/29 03:29:39;;;;;;;4.18;1.35;;;;;;;10.19;100.00;99743.38;5013233;28;20669;-70
2022/12/29 03:32:07;;;;;;;2.85;1.10;;;;;;;10.17;100.00;99734.72;5012644;28;20053;-72
2022/12/29 03:34:33;;;;;;;4.05;0.90;;;;;;;10.18;100.00;99739.06;5012935;28;20048;-71
2022/12/29 03:37:04;;;;;;;5.95;1.30;;;;;;;10.16;100.00;99730.38;5012404;28;20094;-70
2022/12/29 03:39:30;;;;;;;3.97;1.50;;;;;;;10.11;100.00;99740.06;5013098;28;20029;-72
2022/12/29 03:42:02;;;;;;;2.80;1.13;;;;;;;10.09;100.00;99746.78;5012339;28;20035;-73
2022/12/29 03:44:36;;;;;;;3.30;1.20;;;;;;;10.05;100.00;99738.31;5013191;28;20033;-72
2022/12/29 03:47:02;;;;;;;2.05;0.98;;;;;;;10.01;100.00;99753.44;5012342;28;20084;-74
2022/12/29 03:49:28;;;;;;;2.25;1.17;;;;;;;10.01;100.00;99733.66;5013206;28;20444;-72
2022/12/29 03:51:53;;;;;;;2.03;0.90;;;;;;;9.95;100.00;99746.31;5011819;28;20049;-69
2022/12/29 03:54:18;;;;;;;3.50;0.95;;;;;;;9.93;100.00;99749.25;5012674;28;20061;-72
2022/12/29 03:56:44;;;;;;;4.82;1.38;;;;;;;9.91;100.00;99747.88;5012651;28;20034;-74
2022/12/29 03:59:09;;;;;;;4.68;1.60;;;;;;;9.88;100.00;99756.47;5012601;28;20030;-70
2022/12/29 04:01:34;;;;;;;5.05;1.63;;;;;;;9.88;100.00;99759.97;5009453;28;20485;-71
2022/12/29 04:03:59;;;;;;;3.80;1.20;;;;;;;9.86;100.00;99769.41;5012298;28;20057;-73
2022/12/29 04:06:25;;;;;;;3.08;1.25;;;;;;;9.85;100.00;99767.78;5012013;28;20044;-73
2022/12/29 04:08:50;;;;;;;4.80;1.35;;;;;;;9.84;100.00;99758.03;5012516;28;20038;-73
2022/12/29 04:11:15;;;;;;;4.97;1.05;;;;;;;9.80;100.00;99737.97;5012033;28;20112;-74
2022/12/29 04:13:41;;;;;;;4.03;1.00;;;;;;;9.75;100.00;99757.59;5010987;28;20034;-73
2022/12/29 04:16:07;;;;;;;5.85;2.08;;;;;;;9.67;100.00;99777.75;5012764;28;20029;-71
2022/12/29 04:18:32;;;;;;;4.85;1.13;;;;;;;9.59;100.00;99775.47;5011148;28;20433;-71
2022/12/29 04:21:00;;;;;;;4.20;1.13;;;;;;;9.56;100.00;99784.88;5011308;28;20096;-74
2022/12/29 04:23:27;;;;;;;6.07;1.60;;;;;;;9.54;100.00;99780.78;5012598;28;20030;-71
2022/12/29 04:25:52;;;;;;;4.63;1.60;;;;;;;9.55;100.00;99785.13;5012419;28;20069;-71
2022/12/29 04:28:18;;;;;;;5.75;1.30;;;;;;;9.47;100.00;99774.72;5044260;28;20060;-73
2022/12/29 04:30:43;;;;;;;3.30;1.25;;;;;;;9.51;100.00;99789.34;5011219;28;20053;-72
2022/12/29 04:33:09;;;;;;;4.30;1.30;;;;;;;9.45;100.00;99784.94;5032031;28;20033;-72
2022/12/29 04:35:35;;;;;;;8.30;1.98;;;;;;;9.43;100.00;99782.47;5032296;28;20044;-72
2022/12/29 04:38:00;;;;;;;5.13;1.50;;;;;;;9.41;100.00;99781.91;5030589;28;20148;-73
2022/12/29 04:40:26;;;;;;;5.75;1.30;;;;;;;9.41;100.00;99790.00;5031867;28;20037;-72
2022/12/29 04:42:51;;;;;;;6.32;1.67;;;;;;;9.45;100.00;99790.34;5011354;28;20030;-72
2022/12/29 04:45:17;;;;;;;7.32;1.40;;;;;;;9.42;100.00;99812.44;5012633;28;20112;-72
2022/12/29 04:47:42;;;;;;;4.35;1.60;;;;;;;9.39;100.00;99802.91;5011879;28;20056;-71
2022/12/29 04:50:08;;;;;;;3.58;1.10;;;;;;;9.40;100.00;99808.09;5012421;28;20025;-70
2022/12/29 04:52:33;;;;;;;8.15;1.80;;;;;;;9.38;100.00;99814.81;5014264;28;20057;-73
2022/12/29 04:54:59;;;;;;;5.78;1.52;;;;;;;9.33;100.00;99812.84;5012126;28;20109;-70
2022/12/29 04:57:24;;;;;;;6.47;1.75;;;;;;;9.34;100.00;99817.16;5010540;28;20088;-74
2022/12/29 04:59:49;;;;;;;4.88;1.52;;;;;;;9.34;100.00;99816.34;5011726;28;20377;-73
2022/12/29 05:02:15;;;;;;;9.20;1.88;;;;;;;9.35;100.00;99816.09;5012974;28;20045;-73
2022/12/29 05:04:40;;;;;;;5.80;1.58;;;;;;;9.38;100.00;99820.22;5014621;28;20025;-74
2022/12/29 05:07:06;;;;;;;9.98;1.70;;;;;;;9.36;100.00;99825.00;5014317;28;20511;-72
2022/12/29 05:09:31;;;;;;;9.82;1.90;;;;;;;9.28;100.00;99817.31;5016160;28;20029;-71
2022/12/29 05:11:56;;;;;;;7.63;2.00;;;;;;;9.34;100.00;99829.84;5014607;28;20034;-70
2022/12/29 05:14:22;;;;;;;7.30;1.70;;;;;;;9.25;100.00;99840.19;5015683;28;20389;-74
2022/12/29 05:16:47;;;;;;;6.70;1.98;;;;;;;9.26;100.00;99841.84;5015520;28;20057;-73
2022/12/29 05:19:12;;;;;;;7.03;1.73;;;;;;;9.31;100.00;99844.63;5015643;28;20030;-72
2022/12/29 05:21:38;;;;;;;7.57;2.00;;;;;;;9.29;100.00;99854.88;5014836;28;20045;-69
2022/12/29 05:24:03;;;;;;;7.38;1.92;;;;;;;9.31;100.00;99860.03;5015076;28;20042;-73
2022/12/29 05:26:29;;;;;;;7.35;1.85;;;;;;;9.31;100.00;99855.44;5015078;28;20038;-73
2022/12/29 05:28:54;;;;;;;8.75;1.88;;;;;;;9.32;100.00;99853.56;5014953;28;20537;-71
2022/12/29 05:31:19;;;;;;;9.57;2.45;;;;;;;9.35;100.00;99864.69;5013734;28;20037;-70
2022/12/29 05:33:44;;;;;;;7.28;1.67;;;;;;;9.33;100.00;99853.34;5024156;28;20032;-73
2022/12/29 05:36:10;;;;;;;6.85;1.80;;;;;;;9.38;100.00;99856.13;5035170;28;20021;-72
2022/12/29 05:38:35;;;;;;;12.90;2.05;;;;;;;9.36;100.00;99858.25;5035449;28;20041;-73
2022/12/29 05:41:01;;;;;;;5.50;1.70;;;;;;;9.36;100.00;99868.22;5023117;28;20539;-72
2022/12/29 05:43:26;;;;;;;7.93;1.67;;;;;;;9.41;100.00;99865.63;5015444;28;20038;-73
2022/12/29 05:45:53;;;;;;;7.75;2.22;;;;;;;9.43;100.00;99874.28;5014951;28;20038;-73
2022/12/29 05:48:18;;;;;;;5.72;1.83;;;;;;;9.45;100.00;99876.75;5015369;28;20481;-71
2022/12/29 05:50:50;;;;;;;6.30;1.83;;;;;;;9.46;100.00;99875.69;5014389;28;20053;-71
2022/12/29 05:53:16;;;;;;;3.95;1.35;;;;;;;9.51;100.00;99889.28;5015082;28;20037;-71
2022/12/29 05:55:42;;;;;;;7.55;1.60;;;;;;;9.52;100.00;99899.03;5014276;28;20065;-72
2022/12/29 05:58:08;;;;;;;6.53;1.83;;;;;;;9.53;100.00;99890.69;5027929;28;20038;-69
2022/12/29 06:00:33;;;;;;;4.88;1.52;;;;;;;9.56;100.00;99892.09;5031912;28;20381;-73
2022/12/29 06:02:59;;;;;;;6.07;1.55;;;;;;;9.62;100.00;99883.03;5014948;28;20037;-72
2022/12/29 06:05:24;;;;;;;4.88;1.80;;;;;;;9.61;100.00;99878.69;5014774;28;20033;-72
2022/12/29 06:07:49;;;;;;;4.30;1.50;;;;;;;9.65;100.00;99889.84;5014587;28;20034;-74
2022/12/29 06:10:15;;;;;;;7.25;1.70;;;;;;;9.64;100.00;99896.28;5014222;28;20037;-71
2022/12/29 06:12:40;;;;;;;10.57;1.67;;;;;;;9.64;100.00;99890.88;5014114;28;20527;-73
2022/12/29 06:15:06;;;;;;;8.52;1.63;;;;;;;9.60;100.00;99885.13;5014420;28;20489;-73
2022/12/29 06:17:32;;;;;;;4.68;1.30;;;;;;;9.66;100.00;99897.69;5014576;28;20030;-73
2022/12/29 06:19:58;;;;;;;4.90;1.40;;;;;;;9.69;100.00;99902.59;5013015;28;20030;-73
2022/12/29 06:22:23;;;;;;;7.78;1.55;;;;;;;9.71;100.00;99897.78;5013519;28;20109;-72
2022/12/29 06:24:48;;;;;;;6.85;1.77;;;;;;;9.72;100.00;99887.78;5014459;28;20502;-73
2022/12/29 06:27:14;;;;;;;9.10;1.52;;;;;;;9.71;100.00;99884.25;5029646;28;20022;-72
2022/12/29 06:29:40;;;;;;;7.18;1.73;;;;;;;9.71;100.00;99881.56;5014396;28;20025;-73
2022/12/29 06:32:06;;;;;;;7.28;1.70;;;;;;;9.70;100.00;99892.63;5024805;28;20065;-72
2022/12/29 06:34:31;;;;;;;10.70;1.73;;;;;;;9.70;100.00;99871.81;5034134;28;20095;-70
2022/12/29 06:36:57;;;;;;;6.85;1.67;;;;;;;9.70;100.00;99873.69;5022988;28;20028;-72
2022/12/29 06:39:22;;;;;;;7.45;1.65;;;;;;;9.70;100.00;99868.31;5033974;28;20479;-71
2022/12/29 06:41:47;;;;;;;9.20;1.77;;;;;;;9.61;100.00;99873.28;5021580;28;20033;-72
2022/12/29 06:44:13;;;;;;;4.65;1.30;;;;;;;9.62;100.00;99865.97;5013892;28;20552;-69
2022/12/29 06:46:38;;;;;;;3.75;1.50;;;;;;;9.62;100.00;99874.91;5014055;28;20030;-71
2022/12/29 06:49:03;;;;;;;6.00;1.63;;;;;;;9.63;100.00;99881.97;5013838;28;20440;-72
2022/12/29 06:51:29;;;;;;;9.55;1.70;;;;;;;9.62;100.00;99880.31;5013061;28;20064;-72
2022/12/29 06:53:54;;;;;;;7.00;2.10;;;;;;;9.61;100.00;99865.16;5013368;28;20021;-69
2022/12/29 06:56:19;;;;;;;8.10;1.80;;;;;;;9.65;100.00;99877.13;5013624;28;20402;-72
2022/12/29 06:58:45;;;;;;;9.95;2.13;;;;;;;9.65;100.00;99885.25;5012513;28;20029;-71
2022/12/29 07:01:10;;;;;;;10.20;2.17;;;;;;;9.64;100.00;99875.47;5013244;28;20049;-71
2022/12/29 07:03:35;;;;;;;8.88;1.85;;;;;;;9.68;100.00;99897.44;5033743;28;20447;-71
2022/12/29 07:06:00;;;;;;;9.43;1.75;;;;;;;9.66;100.00;99895.00;5028530;28;20029;-70
2022/12/29 07:08:26;;;;;;;9.02;2.28;;;;;;;9.68;100.00;99890.16;5013191;28;20030;-70
2022/12/29 07:10:51;;;;;;;6.43;2.00;;;;;;;9.71;100.00;99891.56;5012640;28;20076;-73
2022/12/29 07:13:16;;;;;;;8.60;2.20;;;;;;;9.75;100.00;99909.75;5013612;28;20087;-72
2022/12/29 07:15:42;;;;;;;9.05;2.20;;;;;;;9.71;100.00;99913.97;5013524;28;20167;-72
2022/12/29 07:18:07;;;;;;;5.75;2.00;;;;;;;9.72;100.00;99936.41;5013305;28;20033;-72
2022/12/29 07:20:32;;;;;;;10.50;2.47;;;;;;;9.72;100.00;99925.59;5013495;28;20037;-72
2022/12/29 07:22:58;;;;;;;7.50;2.10;;;;;;;9.76;100.00;99926.75;5011096;28;20034;-69
2022/12/29 07:25:23;;;;;;;8.60;2.15;;;;;;;9.74;100.00;99932.41;5028889;28;20060;-72
2022/12/29 07:27:49;;;;;;;7.55;2.10;;;;;;;9.76;100.00;99935.69;5033124;28;20030;-71
2022/12/29 07:30:14;;;;;;;7.47;2.22;;;;;;;9.78;100.00;99931.91;5032827;28;20030;-73
2022/12/29 07:32:40;;;;;;;10.95;2.70;;;;;;;9.73;100.00;99946.97;5014705;28;20362;-73
2022/12/29 07:35:06;;;;;;;8.85;2.10;;;;;;;9.74;100.00;99954.03;5012737;28;20029;-69
2022/12/29 07:37:31;;;;;;;9.20;2.72;;;;;;;9.74;100.00;99948.63;5013389;28;20069;-70
2022/12/29 07:39:57;;;;;;;7.95;2.30;;;;;;;9.72;100.00;99936.41;5012459;28;20618;-71
2022/12/29 07:42:22;;;;;;;11.23;2.50;;;;;;;9.68;100.00;99949.59;5012186;28;20026;-69
2022/12/29 07:44:47;;;;;;;12.80;2.47;;;;;;;9.66;100.00;99951.72;5013341;28;20468;-73
2022/12/29 07:47:12;;;;;;;9.57;2.08;;;;;;;9.71;100.00;99946.41;5012770;28;20034;-73
2022/12/29 07:49:38;;;;;;;11.25;2.78;;;;;;;9.80;100.00;99948.69;5013020;28;20123;-72
2022/12/29 07:52:03;;;;;;;10.48;2.30;;;;;;;9.70;100.00;99944.75;5010899;28;20041;-73
2022/12/29 07:54:28;;;;;;;11.68;2.80;;;;;;;9.67;100.00;99939.84;5012678;28;20033;-69
2022/12/29 07:56:54;;;;;;;10.02;2.45;;;;;;;9.70;100.00;99952.84;5027984;28;20057;-71
2022/12/29 07:59:19;;;;;;;8.15;2.58;;;;;;;9.69;100.00;99943.13;5032573;28;20025;-71
2022/12/29 08:01:44;;;;;;;11.95;2.42;;;;;;;9.67;100.00;99945.22;5020616;28;20049;-72
2022/12/29 08:04:10;;;;;;;10.45;2.50;;;;;;;9.64;100.00;99953.00;5012620;28;20022;-72
2022/12/29 08:06:35;;;;;;;12.43;2.53;;;;;;;9.64;100.00;99948.41;5012791;28;20080;-73
2022/12/29 08:09:01;;;;;;;9.55;2.33;;;;;;;9.63;100.00;99954.91;5012482;28;20151;-73
2022/12/29 08:11:27;;;;;;;11.50;2.60;;;;;;;9.66;100.00;99946.31;5012229;28;20533;-70
2022/12/29 08:13:52;;;;;;;11.13;2.15;;;;;;;9.70;100.00;99950.16;5031776;28;20029;-72
2022/12/29 08:16:18;;;;;;;11.73;2.65;;;;;;;9.70;100.00;99966.38;5031999;28;20389;-72
2022/12/29 08:18:43;;;;;;;9.27;2.15;;;;;;;9.77;97.36;99960.84;5031099;28;20065;-70
2022/12/29 08:21:08;;;;;;;10.00;2.47;;;;;;;9.79;98.84;99949.78;5028186;28;20048;-72
2022/12/29 08:23:33;;;;;;;13.35;2.42;;;;;;;9.79;98.21;99957.88;5012595;28;20033;-73
2022/12/29 08:26:00;;;;;;;10.55;2.42;;;;;;;9.74;97.92;99956.72;5012331;28;20060;-71
2022/12/29 08:28:26;;;;;;;9.52;1.98;;;;;;;9.79;97.68;99966.00;5011850;28;20091;-69
2022/12/29 08:30:52;;;;;;;11.48;2.72;;;;;;;9.75;98.76;99958.38;5012206;28;20482;-71
2022/12/29 08:33:17;;;;;;;12.00;2.85;;;;;;;9.79;97.42;99958.69;5012713;28;20041;-73
2022/12/29 08:35:43;;;;;;;15.27;2.58;;;;;;;9.79;97.68;99963.28;5015272;28;20058;-70
2022/12/29 08:38:11;;;;;;;12.57;2.50;;;;;;;9.83;95.02;99969.84;5016272;28;20524;-71
2022/12/29 08:40:36;;;;;;;12.75;3.33;;;;;;;9.83;95.29;99964.44;5016406;28;20577;-71
2022/12/29 08:43:01;;;;;;;10.98;2.85;;;;;;;9.84;96.71;99960.69;5013811;28;20046;-73
2022/12/29 08:45:27;;;;;;;13.05;3.00;;;;;;;9.88;95.88;99967.25;5016623;28;20026;-70
2022/12/29 08:47:52;;;;;;;11.63;2.55;;;;;;;9.84;98.11;99963.38;5048128;28;20029;-69
2022/12/29 08:50:17;;;;;;;14.20;3.10;;;;;;;9.85;97.78;99957.72;5016158;28;20559;-69
2022/12/29 08:52:42;;;;;;;11.68;2.60;;;;;;;9.87;97.84;99965.59;5015788;28;20030;-70
2022/12/29 08:55:08;;;;;;;10.57;2.20;;;;;;;9.87;100.00;99968.28;5016027;28;20092;-71
2022/12/29 08:57:33;;;;;;;8.15;2.20;;;;;;;9.86;100.00;99953.16;5015435;28;20068;-72
2022/12/29 08:59:59;;;;;;;13.32;3.00;;;;;;;9.87;99.49;99973.69;5015789;28;20096;-71
2022/12/29 09:02:24;;;;;;;11.52;2.90;;;;;;;9.87;100.00;99974.53;5013161;28;20478;-71
2022/12/29 09:04:49;;;;;;;13.75;2.75;;;;;;;9.88;96.91;99975.34;5014934;28;20052;-70
2022/12/29 09:07:15;;;;;;;11.95;2.50;;;;;;;9.91;98.81;99975.69;5014585;28;20064;-71
2022/12/29 09:09:40;;;;;;;10.05;2.33;;;;;;;9.90;98.59;99979.47;5016074;28;20133;-69
2022/12/29 09:12:05;;;;;;;16.00;2.83;;;;;;;9.91;98.73;99977.56;5015363;28;20097;-72
2022/12/29 09:14:31;;;;;;;10.98;2.40;;;;;;;9.91;100.00;99991.88;5028652;28;20426;-73
2022/12/29 09:19:39;;;;;;;8.27;2.38;;;;;;;9.89;100.00;99995.91;5035412;28;20051;-72
2022/12/29 09:22:05;;;;;;;9.45;2.47;;;;;;;9.84;100.00;99993.09;5029200;28;20026;-70
2022/12/29 09:24:30;;;;;;;8.23;2.20;;;;;;;9.84;100.00;99995.81;5034291;28;20029;-71
2022/12/29 09:26:56;;;;;;;11.20;2.22;;;;;;;9.73;100.00;100005.59;5025564;28;20029;-71
2022/12/29 09:29:21;;;;;;;9.38;2.47;;;;;;;9.76;100.00;100026.72;5033917;28;20457;-71
2022/12/29 09:31:46;;;;;;;9.65;2.83;;;;;;;9.67;100.00;100020.06;5027629;28;20030;-73
2022/12/29 09:34:12;;;;;;;14.82;2.72;;;;;;;9.63;100.00;100019.72;5014357;28;20030;-73
2022/12/29 09:36:37;;;;;;;12.10;2.60;;;;;;;9.55;100.00;100030.91;5014438;28;20021;-72
2022/12/29 09:39:02;;;;;;;9.57;2.60;;;;;;;9.54;100.00;100026.53;5018681;28;20030;-70
2022/12/29 09:41:39;;;;;;;13.25;3.10;;;;;;;9.55;100.00;100031.72;5028800;28;20729;-72
2022/12/29 09:44:07;;;;;;;11.43;2.70;;;;;;;9.56;100.00;100029.84;5014739;28;20076;-72
2022/12/29 09:46:38;;;;;;;9.60;2.25;;;;;;;9.53;100.00;100030.31;5013876;28;20061;-73
2022/12/29 09:49:39;;;;;;;10.85;2.80;;;;;;;9.57;100.00;100026.06;5014723;28;20065;-73
2022/12/29 09:52:37;;;;;;;12.27;2.85;;;;;;;9.55;100.00;100045.22;5013118;28;20504;-71
2022/12/29 09:55:10;;;;;;;10.20;2.58;;;;;;;9.55;100.00;100045.22;5014220;28;20045;-72
2022/12/29 09:57:49;;;;;;;17.00;2.88;;;;;;;9.55;100.00;100049.81;5014545;28;20465;-72
2022/12/29 10:00:21;;;;;;;8.02;2.40;;;;;;;9.47;100.00;100071.78;5014807;28;20050;-73
2022/12/29 10:02:57;;;;;;;10.25;2.10;;;;;;;9.39;100.00;100070.25;5012042;28;20094;-71
2022/12/29 10:05:45;;;;;;;10.93;2.78;;;;;;;9.35;100.00;100071.78;5012986;28;20034;-74
2022/12/29 10:08:34;;;;;;;11.57;2.50;;;;;;;9.30;100.00;100079.75;5013206;28;20061;-74
2022/12/29 10:11:18;;;;;;;10.65;2.28;;;;;;;9.32;100.00;100083.88;5014212;28;20112;-74
2022/12/29 10:14:11;;;;;;;11.75;2.60;;;;;;;9.23;100.00;100086.09;5018634;28;20037;-73
2022/12/29 10:17:02;;;;;;;11.38;2.33;;;;;;;9.21;100.00;100095.50;5014557;28;20026;-74
2022/12/29 10:19:49;;;;;;;9.73;2.22;;;;;;;9.06;100.00;100109.47;5019257;28;20039;-72
2022/12/29 10:22:42;;;;;;;11.82;2.55;;;;;;;9.01;100.00;100110.16;5035044;28;20027;-70
2022/12/29 10:25:38;;;;;;;11.48;2.63;;;;;;;9.01;100.00;100115.56;5014090;28;20037;-69
2022/12/29 10:28:13;;;;;;;14.85;2.58;;;;;;;8.89;100.00;100117.41;5021149;28;20467;-68
2022/12/29 10:30:40;;;;;;;14.38;2.88;;;;;;;8.87;100.00;100119.50;5034011;28;20120;-71
2022/12/29 10:33:11;;;;;;;11.05;2.22;;;;;;;8.85;100.00;100117.06;5032688;28;20115;-71
2022/12/29 10:35:40;;;;;;;11.07;2.40;;;;;;;8.91;100.00;100125.25;5032739;28;20485;-71
2022/12/29 10:38:30;;;;;;;9.85;2.30;;;;;;;8.90;100.00;100135.25;5033873;28;20034;-73
2022/12/29 10:41:05;;;;;;;10.48;2.53;;;;;;;8.84;100.00;100136.97;5032756;28;20060;-72
2022/12/29 10:43:36;;;;;;;12.57;3.40;;;;;;;8.86;100.00;100147.53;5013977;28;20034;-69
2022/12/29 10:46:06;;;;;;;12.13;2.97;;;;;;;8.89;100.00;100146.25;5013881;28;20156;-70
2022/12/29 10:48:34;;;;;;;11.95;2.67;;;;;;;8.87;100.00;100158.09;5016526;28;20029;-72
2022/12/29 10:51:04;;;;;;;12.35;2.70;;;;;;;8.87;100.00;100151.88;5033800;28;20092;-71
2022/12/29 10:53:43;;;;;;;11.52;2.72;;;;;;;8.89;100.00;100154.34;5014149;28;20057;-72
2022/12/29 10:56:35;;;;;;;12.90;2.83;;;;;;;8.89;100.00;100159.75;5013722;28;20044;-72
2022/12/29 10:59:31;;;;;;;11.90;2.50;;;;;;;8.92;100.00;100168.19;5017216;28;20041;-69
2022/12/29 11:02:23;;;;;;;12.55;2.85;;;;;;;8.90;100.00;100177.59;5023902;28;20061;-70
2022/12/29 11:04:57;;;;;;;12.60;2.63;;;;;;;8.82;100.00;100167.97;5026683;28;20127;-71
2022/12/29 11:07:22;;;;;;;14.82;3.03;;;;;;;8.75;100.00;100170.75;5029520;28;20492;-74
2022/12/29 11:09:48;;;;;;;11.65;2.50;;;;;;;8.73;100.00;100180.13;5015916;28;20030;-72
2022/12/29 11:12:29;;;;;;;13.90;3.28;;;;;;;8.67;100.00;100184.56;5029660;28;20034;-71
2022/12/29 11:15:00;;;;;;;14.15;2.75;;;;;;;8.72;100.00;100190.06;5034422;28;20125;-71
2022/12/29 11:17:25;;;;;;;12.65;3.15;;;;;;;8.64;100.00;100191.22;5031380;28;20477;-69
2022/12/29 11:19:51;;;;;;;16.13;3.13;;;;;;;8.65;100.00;100184.78;5023080;28;20053;-71
2022/12/29 11:22:24;;;;;;;14.80;3.15;;;;;;;8.69;100.00;100187.84;5013184;28;20026;-72
2022/12/29 11:24:52;;;;;;;14.68;2.70;;;;;;;8.73;100.00;100183.66;5043896;28;20033;-71
2022/12/29 11:27:25;;;;;;;12.48;2.60;;;;;;;8.78;100.00;100191.84;5049740;28;20455;-71
2022/12/29 11:29:52;;;;;;;10.10;2.65;;;;;;;8.86;100.00;100194.25;5033067;28;20052;-71
2022/12/29 11:32:21;;;;;;;11.40;2.85;;;;;;;8.93;100.00;100198.72;5038651;28;20055;-71
2022/12/29 11:34:47;;;;;;;11.18;2.67;;;;;;;8.95;100.00;100199.31;5022213;28;20030;-71
2022/12/29 11:37:14;;;;;;;11.50;2.85;;;;;;;8.98;100.00;100204.25;5012292;28;20036;-70
2022/12/29 11:39:49;;;;;;;15.23;3.33;;;;;;;9.00;100.00;100210.25;5031538;28;20049;-71
2022/12/29 11:42:17;;;;;;;12.77;3.03;;;;;;;9.00;100.00;100210.25;5032562;28;20026;-73
2022/12/29 11:45:34;;;;;;;12.50;2.70;;;;;;;9.07;100.00;100218.22;5011611;28;20030;-72
2022/12/29 11:48:07;;;;;;;15.65;4.00;;;;;;;9.04;100.00;100212.25;5027115;28;20067;-72
2022/12/29 11:50:35;;;;;;;13.80;3.55;;;;;;;9.02;100.00;100213.53;5034371;28;20029;-71
2022/12/29 11:53:05;;;;;;;19.25;5.43;;;;;;;9.04;100.00;100216.81;5036840;28;20026;-73
2022/12/29 11:55:31;;;;;;;15.10;3.90;;;;;;;9.03;100.00;100226.78;5010999;28;20450;-71
2022/12/29 11:58:01;;;;;;;15.90;3.55;;;;;;;9.07;100.00;100221.75;5011220;28;20033;-72
2022/12/29 12:00:29;;;;;;;16.27;5.55;;;;;;;9.11;100.00;100230.22;5010212;28;20053;-73
2022/12/29 12:03:08;;;;;;;14.38;3.50;;;;;;;9.11;100.00;100228.34;5035756;28;20478;-73
2022/12/29 12:05:53;;;;;;;14.52;3.38;;;;;;;9.15;100.00;100224.13;5051903;28;20035;-74
2022/12/29 12:08:21;;;;;;;14.30;3.42;;;;;;;9.16;100.00;100220.38;5051484;28;20036;-74
2022/12/29 12:11:14;;;;;;;19.40;3.97;;;;;;;9.24;100.00;100203.03;5023567;28;20037;-69
2022/12/29 12:13:49;;;;;;;16.35;3.88;;;;;;;9.24;100.00;100219.22;5026843;28;20049;-69
2022/12/29 12:16:20;;;;;;;13.57;3.45;;;;;;;9.26;100.00;100227.09;5031911;28;20040;-68
2022/12/29 12:18:56;;;;;;;12.80;3.38;;;;;;;9.29;100.00;100216.66;5031721;28;20029;-71